createdAt,value
2023-11-27T00:00:37.442Z,996.08
2023-11-27T00:01:29.292Z,996.09
2023-11-27T00:02:28.167Z,996.03
2023-11-27T00:03:28.086Z,996.08
2023-11-27T00:04:28.141Z,996.06
2023-11-27T00:05:28.064Z,996.03
2023-11-27T00:06:28.081Z,996.03
2023-11-27T00:07:28.041Z,996.00
2023-11-27T00:08:28.036Z,996.00
2023-11-27T00:09:28.049Z,995.99
2023-11-27T00:10:28.077Z,995.96
2023-11-27T00:11:28.000Z,995.99
2023-11-27T00:12:27.991Z,995.95
2023-11-27T00:13:27.976Z,995.96
2023-11-27T00:14:27.968Z,995.90
2023-11-27T00:15:27.991Z,995.91
2023-11-27T00:16:28.124Z,995.93
2023-11-27T00:17:27.941Z,995.94
2023-11-27T00:18:27.927Z,995.88
2023-11-27T00:19:27.922Z,995.91
2023-11-27T00:20:27.907Z,995.87
2023-11-27T00:21:27.896Z,995.85
2023-11-27T00:22:27.950Z,995.86
2023-11-27T00:23:27.894Z,995.82
2023-11-27T00:24:27.875Z,995.80
2023-11-27T00:25:27.876Z,995.83
2023-11-27T00:26:27.838Z,995.80
2023-11-27T00:27:27.834Z,995.77
2023-11-27T00:28:27.848Z,995.70
2023-11-27T00:29:27.803Z,995.77
2023-11-27T00:30:27.802Z,995.75
2023-11-27T00:31:27.891Z,995.71
2023-11-27T00:32:27.775Z,995.73
2023-11-27T00:33:27.792Z,995.71
2023-11-27T00:34:27.750Z,995.69
2023-11-27T00:35:27.745Z,995.72
2023-11-27T00:36:27.728Z,995.69
2023-11-27T00:37:27.723Z,995.68
2023-11-27T00:38:27.719Z,995.70
2023-11-27T00:39:27.723Z,995.68
2023-11-27T00:40:27.724Z,995.65
2023-11-27T00:41:27.710Z,995.66
2023-11-27T00:42:27.677Z,995.61
2023-11-27T00:43:27.652Z,995.57
2023-11-27T00:44:27.678Z,995.53
2023-11-27T00:45:27.679Z,995.52
2023-11-27T00:46:27.642Z,995.50
2023-11-27T00:47:27.654Z,995.48
2023-11-27T00:48:27.619Z,995.48
2023-11-27T00:49:27.595Z,995.40
2023-11-27T00:50:27.602Z,995.44
2023-11-27T00:51:27.579Z,995.38
2023-11-27T00:52:28.427Z,995.39
2023-11-27T00:53:27.549Z,995.38
2023-11-27T00:54:27.536Z,995.29
2023-11-27T00:55:27.531Z,995.33
2023-11-27T00:56:27.532Z,995.30
2023-11-27T00:57:27.575Z,995.25
2023-11-27T00:58:27.499Z,995.26
2023-11-27T00:59:27.477Z,995.28
2023-11-27T01:00:27.473Z,995.30
2023-11-27T01:01:27.515Z,995.26
2023-11-27T01:02:27.543Z,995.26
2023-11-27T01:03:27.548Z,995.23
2023-11-27T01:04:27.458Z,995.22
2023-11-27T01:05:27.456Z,995.21
2023-11-27T01:06:27.403Z,995.17
2023-11-27T01:07:27.393Z,995.19
2023-11-27T01:08:27.384Z,995.16
2023-11-27T01:09:27.412Z,995.19
2023-11-27T01:10:27.413Z,995.16
2023-11-27T01:11:27.357Z,995.11
2023-11-27T01:12:27.345Z,995.08
2023-11-27T01:13:27.381Z,995.08
2023-11-27T01:14:27.316Z,994.96
2023-11-27T01:15:27.330Z,994.98
2023-11-27T01:16:27.357Z,994.93
2023-11-27T01:17:27.314Z,994.94
2023-11-27T01:18:27.277Z,994.94
2023-11-27T01:19:27.263Z,994.88
2023-11-27T01:20:27.257Z,994.88
2023-11-27T01:21:27.272Z,994.84
2023-11-27T01:22:27.229Z,994.84
2023-11-27T01:23:27.221Z,994.76
2023-11-27T01:24:27.213Z,994.74
2023-11-27T01:25:27.253Z,994.74
2023-11-27T01:26:27.189Z,994.71
2023-11-27T01:27:27.180Z,994.73
2023-11-27T01:28:27.163Z,994.71
2023-11-27T01:29:27.180Z,994.72
2023-11-27T01:30:27.145Z,994.66
2023-11-27T01:31:27.162Z,994.67
2023-11-27T01:32:27.168Z,994.68
2023-11-27T01:33:27.154Z,994.66
2023-11-27T01:34:27.141Z,994.63
2023-11-27T01:35:27.091Z,994.64
2023-11-27T01:36:27.077Z,994.58
2023-11-27T01:37:27.093Z,994.56
2023-11-27T01:38:27.052Z,994.55
2023-11-27T01:39:27.053Z,994.57
2023-11-27T01:40:27.060Z,994.54
2023-11-27T01:41:27.021Z,994.47
2023-11-27T01:42:27.033Z,994.45
2023-11-27T01:43:27.037Z,994.46
2023-11-27T01:44:27.005Z,994.45
2023-11-27T01:45:27.913Z,994.41
2023-11-27T01:46:27.175Z,994.34
2023-11-27T01:47:26.961Z,994.27
2023-11-27T01:48:26.943Z,994.24
2023-11-27T01:49:26.988Z,994.23
2023-11-27T01:50:26.920Z,994.22
2023-11-27T01:51:26.948Z,994.25
2023-11-27T01:52:26.985Z,994.20
2023-11-27T01:53:26.893Z,994.18
2023-11-27T01:54:26.880Z,994.19
2023-11-27T01:55:26.891Z,994.16
2023-11-27T01:56:26.858Z,994.18
2023-11-27T01:57:26.869Z,994.17
2023-11-27T01:58:26.850Z,994.13
2023-11-27T01:59:26.828Z,994.16
2023-11-27T02:00:26.811Z,994.15
2023-11-27T02:01:26.947Z,994.20
2023-11-27T02:02:26.924Z,994.17
2023-11-27T02:03:26.867Z,994.17
2023-11-27T02:04:26.814Z,994.16
2023-11-27T02:05:26.784Z,994.13
2023-11-27T02:06:27.433Z,994.08
2023-11-27T02:07:26.741Z,994.08
2023-11-27T02:08:26.727Z,994.03
2023-11-27T02:09:26.719Z,994.00
2023-11-27T02:10:26.738Z,993.99
2023-11-27T02:11:26.749Z,994.01
2023-11-27T02:12:26.686Z,993.96
2023-11-27T02:13:26.700Z,993.95
2023-11-27T02:14:26.658Z,993.94
2023-11-27T02:15:26.691Z,993.92
2023-11-27T02:16:26.701Z,993.88
2023-11-27T02:17:26.683Z,993.86
2023-11-27T02:18:26.618Z,993.81
2023-11-27T02:19:26.628Z,993.82
2023-11-27T02:20:26.626Z,993.82
2023-11-27T02:21:26.585Z,993.87
2023-11-27T02:22:26.633Z,993.85
2023-11-27T02:23:26.569Z,993.86
2023-11-27T02:24:26.574Z,993.80
2023-11-27T02:25:26.572Z,993.80
2023-11-27T02:26:26.535Z,993.80
2023-11-27T02:27:26.529Z,993.83
2023-11-27T02:28:26.532Z,993.80
2023-11-27T02:29:26.534Z,993.77
2023-11-27T02:30:26.484Z,993.76
2023-11-27T02:31:26.542Z,993.76
2023-11-27T02:32:26.468Z,993.74
2023-11-27T02:33:26.541Z,993.72
2023-11-27T02:34:26.533Z,993.71
2023-11-27T02:35:26.438Z,993.68
2023-11-27T02:36:26.429Z,993.70
2023-11-27T02:37:26.438Z,993.69
2023-11-27T02:38:26.408Z,993.62
2023-11-27T02:39:26.424Z,993.60
2023-11-27T02:40:26.420Z,993.62
2023-11-27T02:41:26.373Z,993.60
2023-11-27T02:42:26.378Z,993.58
2023-11-27T02:43:26.373Z,993.59
2023-11-27T02:44:26.370Z,993.56
2023-11-27T02:45:26.331Z,993.54
2023-11-27T02:46:26.493Z,993.52
2023-11-27T02:47:26.432Z,993.50
2023-11-27T02:48:26.287Z,993.45
2023-11-27T02:49:26.339Z,993.46
2023-11-27T02:50:26.269Z,993.43
2023-11-27T02:51:26.265Z,993.36
2023-11-27T02:52:26.289Z,993.42
2023-11-27T02:53:26.263Z,993.31
2023-11-27T02:54:26.914Z,993.32
2023-11-27T02:55:26.287Z,993.27
2023-11-27T02:56:26.219Z,993.31
2023-11-27T02:57:26.223Z,993.32
2023-11-27T02:58:26.196Z,993.31
2023-11-27T02:59:26.201Z,993.28
2023-11-27T03:00:26.910Z,993.28
2023-11-27T03:01:26.251Z,993.20
2023-11-27T03:02:26.181Z,993.23
2023-11-27T03:03:26.165Z,993.16
2023-11-27T03:04:26.156Z,993.16
2023-11-27T03:05:26.146Z,993.13
2023-11-27T03:06:26.145Z,993.09
2023-11-27T03:07:26.095Z,993.11
2023-11-27T03:08:26.072Z,993.07
2023-11-27T03:09:26.064Z,993.04
2023-11-27T03:10:26.107Z,993.02
2023-11-27T03:11:26.042Z,993.04
2023-11-27T03:12:26.073Z,993.06
2023-11-27T03:13:26.064Z,993.03
2023-11-27T03:14:26.008Z,993.01
2023-11-27T03:15:25.999Z,993.02
2023-11-27T03:16:26.047Z,992.99
2023-11-27T03:17:25.989Z,992.96
2023-11-27T03:18:26.000Z,992.94
2023-11-27T03:19:32.650Z,992.97
2023-11-27T03:20:26.950Z,992.94
2023-11-27T03:21:25.959Z,992.96
2023-11-27T03:22:25.954Z,992.93
2023-11-27T03:23:25.975Z,992.91
2023-11-27T03:24:25.923Z,992.94
2023-11-27T03:25:25.945Z,992.90
2023-11-27T03:26:26.896Z,992.85
2023-11-27T03:27:25.871Z,992.83
2023-11-27T03:28:25.870Z,992.85
2023-11-27T03:29:25.865Z,992.82
2023-11-27T03:30:25.838Z,992.75
2023-11-27T03:31:25.907Z,992.77
2023-11-27T03:32:25.811Z,992.78
2023-11-27T03:33:25.805Z,992.80
2023-11-27T03:34:25.791Z,992.73
2023-11-27T03:35:25.812Z,992.73
2023-11-27T03:36:25.761Z,992.72
2023-11-27T03:37:25.894Z,992.69
2023-11-27T03:38:25.768Z,992.68
2023-11-27T03:39:25.741Z,992.69
2023-11-27T03:40:25.819Z,992.69
2023-11-27T03:41:25.733Z,992.69
2023-11-27T03:42:25.700Z,992.66
2023-11-27T03:43:25.748Z,992.68
2023-11-27T03:44:25.709Z,992.63
2023-11-27T03:45:25.700Z,992.56
2023-11-27T03:46:25.888Z,992.61
2023-11-27T03:47:25.838Z,992.55
2023-11-27T03:48:25.724Z,992.53
2023-11-27T03:49:25.749Z,992.54
2023-11-27T03:50:25.617Z,992.56
2023-11-27T03:51:25.964Z,992.49
2023-11-27T03:52:25.770Z,992.51
2023-11-27T03:53:25.609Z,992.46
2023-11-27T03:54:25.593Z,992.47
2023-11-27T03:55:25.851Z,992.41
2023-11-27T03:56:25.550Z,992.41
2023-11-27T03:57:25.547Z,992.36
2023-11-27T03:58:25.566Z,992.36
2023-11-27T03:59:25.521Z,992.35
2023-11-27T04:00:25.538Z,992.33
2023-11-27T04:01:25.581Z,992.30
2023-11-27T04:02:25.764Z,992.34
2023-11-27T04:03:26.429Z,992.32
2023-11-27T04:04:25.479Z,992.32
2023-11-27T04:05:25.482Z,992.29
2023-11-27T04:06:25.444Z,992.27
2023-11-27T04:07:25.498Z,992.25
2023-11-27T04:08:25.426Z,992.22
2023-11-27T04:09:25.449Z,992.25
2023-11-27T04:10:25.523Z,992.25
2023-11-27T04:11:25.390Z,992.19
2023-11-27T04:12:25.379Z,992.17
2023-11-27T04:13:25.438Z,992.15
2023-11-27T04:14:25.358Z,992.15
2023-11-27T04:15:25.368Z,992.09
2023-11-27T04:16:25.395Z,992.06
2023-11-27T04:17:25.359Z,992.06
2023-11-27T04:18:25.328Z,992.03
2023-11-27T04:19:25.407Z,991.99
2023-11-27T04:20:32.345Z,991.98
2023-11-27T04:21:25.305Z,991.95
2023-11-27T04:22:25.300Z,991.98
2023-11-27T04:23:25.257Z,991.88
2023-11-27T04:24:25.273Z,991.87
2023-11-27T04:25:25.342Z,991.87
2023-11-27T04:26:25.264Z,991.84
2023-11-27T04:27:25.220Z,991.79
2023-11-27T04:28:25.265Z,991.79
2023-11-27T04:29:25.225Z,991.76
2023-11-27T04:30:25.894Z,991.77
2023-11-27T04:31:25.246Z,991.78
2023-11-27T04:32:25.223Z,991.76
2023-11-27T04:33:25.456Z,991.77
2023-11-27T04:34:25.218Z,991.73
2023-11-27T04:35:25.128Z,991.76
2023-11-27T04:36:25.122Z,991.76
2023-11-27T04:37:25.192Z,991.72
2023-11-27T04:38:25.109Z,991.73
2023-11-27T04:39:25.103Z,991.71
2023-11-27T04:40:25.162Z,991.66
2023-11-27T04:41:25.101Z,991.67
2023-11-27T04:42:25.061Z,991.67
2023-11-27T04:43:25.060Z,991.62
2023-11-27T04:44:25.294Z,991.62
2023-11-27T04:45:25.027Z,991.63
2023-11-27T04:46:25.087Z,991.59
2023-11-27T04:47:25.055Z,991.60
2023-11-27T04:48:25.006Z,991.59
2023-11-27T04:49:25.043Z,991.62
2023-11-27T04:50:24.965Z,991.62
2023-11-27T04:51:24.964Z,991.59
2023-11-27T04:52:25.028Z,991.59
2023-11-27T04:53:24.935Z,991.59
2023-11-27T04:54:24.944Z,991.57
2023-11-27T04:55:24.980Z,991.57
2023-11-27T04:56:24.896Z,991.55
2023-11-27T04:57:24.932Z,991.54
2023-11-27T04:58:24.901Z,991.52
2023-11-27T04:59:24.875Z,991.53
2023-11-27T05:00:24.874Z,991.54
2023-11-27T05:01:24.971Z,991.49
2023-11-27T05:02:24.875Z,991.41
2023-11-27T05:03:24.846Z,991.45
2023-11-27T05:04:24.885Z,991.43
2023-11-27T05:05:24.816Z,991.40
2023-11-27T05:06:24.791Z,991.38
2023-11-27T05:07:24.798Z,991.38
2023-11-27T05:08:24.779Z,991.33
2023-11-27T05:09:24.757Z,991.39
2023-11-27T05:10:24.799Z,991.35
2023-11-27T05:11:24.770Z,991.30
2023-11-27T05:12:30.568Z,991.28
2023-11-27T05:13:25.845Z,991.31
2023-11-27T05:14:24.709Z,991.29
2023-11-27T05:15:24.695Z,991.29
2023-11-27T05:16:24.793Z,991.17
2023-11-27T05:17:24.784Z,991.17
2023-11-27T05:18:24.666Z,991.15
2023-11-27T05:19:24.700Z,991.12
2023-11-27T05:20:24.666Z,991.11
2023-11-27T05:21:24.630Z,991.10
2023-11-27T05:22:24.758Z,991.05
2023-11-27T05:23:24.610Z,991.02
2023-11-27T05:24:24.620Z,991.02
2023-11-27T05:25:24.632Z,990.97
2023-11-27T05:26:24.582Z,990.96
2023-11-27T05:27:24.561Z,990.96
2023-11-27T05:28:24.602Z,990.96
2023-11-27T05:29:24.558Z,990.92
2023-11-27T05:30:24.563Z,990.93
2023-11-27T05:31:24.592Z,990.90
2023-11-27T05:32:24.534Z,990.89
2023-11-27T05:33:26.938Z,990.84
2023-11-27T05:34:24.506Z,990.89
2023-11-27T05:35:24.495Z,990.86
2023-11-27T05:36:24.467Z,990.86
2023-11-27T05:37:24.510Z,990.83
2023-11-27T05:38:24.452Z,990.84
2023-11-27T05:39:24.477Z,990.79
2023-11-27T05:40:24.492Z,990.79
2023-11-27T05:41:24.411Z,990.77
2023-11-27T05:42:24.402Z,990.72
2023-11-27T05:43:24.441Z,990.72
2023-11-27T05:44:24.458Z,990.72
2023-11-27T05:45:24.388Z,990.66
2023-11-27T05:46:24.439Z,990.67
2023-11-27T05:47:24.386Z,990.57
2023-11-27T05:48:24.337Z,990.62
2023-11-27T05:49:24.421Z,990.60
2023-11-27T05:50:24.320Z,990.58
2023-11-27T05:51:24.306Z,990.58
2023-11-27T05:52:24.352Z,990.59
2023-11-27T05:53:24.320Z,990.46
2023-11-27T05:54:24.277Z,990.57
2023-11-27T05:55:24.289Z,990.54
2023-11-27T05:56:24.256Z,990.49
2023-11-27T05:57:24.237Z,990.49
2023-11-27T05:58:24.249Z,990.47
2023-11-27T05:59:24.232Z,990.48
2023-11-27T06:00:24.218Z,990.50
2023-11-27T06:01:24.274Z,990.47
2023-11-27T06:02:24.206Z,990.49
2023-11-27T06:03:24.224Z,990.49
2023-11-27T06:04:24.194Z,990.45
2023-11-27T06:05:24.146Z,990.43
2023-11-27T06:06:24.141Z,990.40
2023-11-27T06:07:24.162Z,990.37
2023-11-27T06:08:24.119Z,990.38
2023-11-27T06:09:24.133Z,990.35
2023-11-27T06:10:24.127Z,990.35
2023-11-27T06:11:24.080Z,990.35
2023-11-27T06:12:24.078Z,990.27
2023-11-27T06:13:24.116Z,990.29
2023-11-27T06:14:24.079Z,990.27
2023-11-27T06:15:24.083Z,990.28
2023-11-27T06:16:24.086Z,990.27
2023-11-27T06:17:24.062Z,990.22
2023-11-27T06:18:24.085Z,990.19
2023-11-27T06:19:24.085Z,990.16
2023-11-27T06:20:23.992Z,990.16
2023-11-27T06:21:23.991Z,990.15
2023-11-27T06:22:24.031Z,990.13
2023-11-27T06:23:23.955Z,990.13
2023-11-27T06:24:23.943Z,990.11
2023-11-27T06:25:23.969Z,990.05
2023-11-27T06:26:23.925Z,990.03
2023-11-27T06:27:24.861Z,990.05
2023-11-27T06:28:23.943Z,990.02
2023-11-27T06:29:23.892Z,990.03
2023-11-27T06:30:23.885Z,989.98
2023-11-27T06:31:23.952Z,989.98
2023-11-27T06:32:23.914Z,989.98
2023-11-27T06:33:24.064Z,989.96
2023-11-27T06:34:23.905Z,989.94
2023-11-27T06:35:23.834Z,989.90
2023-11-27T06:36:23.823Z,989.88
2023-11-27T06:37:23.871Z,989.85
2023-11-27T06:38:23.804Z,989.86
2023-11-27T06:39:23.812Z,989.85
2023-11-27T06:40:34.001Z,989.76
2023-11-27T06:41:24.787Z,989.79
2023-11-27T06:42:23.761Z,989.78
2023-11-27T06:43:23.835Z,989.75
2023-11-27T06:44:23.736Z,989.75
2023-11-27T06:45:23.719Z,989.69
2023-11-27T06:46:23.775Z,989.69
2023-11-27T06:47:23.697Z,989.64
2023-11-27T06:48:24.370Z,989.63
2023-11-27T06:49:23.779Z,989.58
2023-11-27T06:50:23.673Z,989.60
2023-11-27T06:51:23.663Z,989.58
2023-11-27T06:52:23.732Z,989.53
2023-11-27T06:53:23.637Z,989.49
2023-11-27T06:54:23.647Z,989.49
2023-11-27T06:55:23.649Z,989.43
2023-11-27T06:56:23.606Z,989.37
2023-11-27T06:57:23.628Z,989.40
2023-11-27T06:58:23.603Z,989.39
2023-11-27T06:59:24.374Z,989.33
2023-11-27T07:00:23.947Z,989.32
2023-11-27T07:01:23.598Z,989.29
2023-11-27T07:02:23.633Z,989.28
2023-11-27T07:03:23.563Z,989.24
2023-11-27T07:04:23.576Z,989.20
2023-11-27T07:05:23.631Z,989.20
2023-11-27T07:06:23.531Z,989.11
2023-11-27T07:07:23.520Z,989.07
2023-11-27T07:08:23.472Z,989.00
2023-11-27T07:09:23.461Z,989.02
2023-11-27T07:10:23.481Z,988.98
2023-11-27T07:11:23.466Z,988.95
2023-11-27T07:12:23.459Z,988.93
2023-11-27T07:13:23.429Z,988.87
2023-11-27T07:14:23.409Z,988.85
2023-11-27T07:15:23.392Z,988.79
2023-11-27T07:16:23.458Z,988.78
2023-11-27T07:17:23.489Z,988.76
2023-11-27T07:18:26.860Z,988.71
2023-11-27T07:19:24.390Z,988.69
2023-11-27T07:20:23.371Z,988.61
2023-11-27T07:21:23.348Z,988.56
2023-11-27T07:22:23.368Z,988.55
2023-11-27T07:23:23.335Z,988.54
2023-11-27T07:24:23.305Z,988.49
2023-11-27T07:25:23.327Z,988.49
2023-11-27T07:26:23.295Z,988.47
2023-11-27T07:27:23.267Z,988.42
2023-11-27T07:28:23.269Z,988.38
2023-11-27T07:29:23.246Z,988.44
2023-11-27T07:30:23.236Z,988.41
2023-11-27T07:31:23.337Z,988.32
2023-11-27T07:32:23.305Z,988.34
2023-11-27T07:33:23.205Z,988.34
2023-11-27T07:34:23.260Z,988.27
2023-11-27T07:35:23.177Z,988.25
2023-11-27T07:36:23.171Z,988.24
2023-11-27T07:37:23.236Z,988.17
2023-11-27T07:38:23.181Z,988.16
2023-11-27T07:39:23.158Z,988.17
2023-11-27T07:40:23.163Z,988.15
2023-11-27T07:41:24.454Z,987.99
2023-11-27T07:42:23.098Z,987.97
2023-11-27T07:43:23.116Z,987.93
2023-11-27T07:44:23.080Z,987.92
2023-11-27T07:45:23.069Z,987.84
2023-11-27T07:46:23.131Z,987.86
2023-11-27T07:47:23.914Z,987.89
2023-11-27T07:48:23.049Z,987.81
2023-11-27T07:49:23.154Z,987.73
2023-11-27T07:50:23.013Z,987.75
2023-11-27T07:51:22.998Z,987.70
2023-11-27T07:52:23.022Z,987.73
2023-11-27T07:53:22.997Z,987.72
2023-11-27T07:54:22.991Z,987.79
2023-11-27T07:55:22.993Z,987.81
2023-11-27T07:56:22.970Z,987.90
2023-11-27T07:57:22.968Z,987.82
2023-11-27T07:58:22.946Z,987.67
2023-11-27T07:59:22.925Z,987.73
2023-11-27T08:00:22.904Z,987.65
2023-11-27T08:01:22.915Z,987.61
2023-11-27T08:02:22.931Z,987.61
2023-11-27T08:03:23.040Z,987.57
2023-11-27T08:04:22.995Z,987.49
2023-11-27T08:05:22.917Z,987.52
2023-11-27T08:06:22.839Z,987.44
2023-11-27T08:07:22.850Z,987.33
2023-11-27T08:08:22.833Z,987.42
2023-11-27T08:09:22.837Z,987.31
2023-11-27T08:10:22.844Z,987.36
2023-11-27T08:11:22.782Z,987.36
2023-11-27T08:12:22.785Z,987.32
2023-11-27T08:13:23.658Z,987.29
2023-11-27T08:14:22.769Z,987.29
2023-11-27T08:15:22.750Z,987.34
2023-11-27T08:16:22.903Z,987.41
2023-11-27T08:17:22.782Z,987.18
2023-11-27T08:18:22.729Z,987.32
2023-11-27T08:19:22.761Z,987.25
2023-11-27T08:20:22.706Z,987.26
2023-11-27T08:21:22.705Z,987.20
2023-11-27T08:22:22.707Z,987.17
2023-11-27T08:23:22.674Z,987.20
2023-11-27T08:24:22.675Z,987.23
2023-11-27T08:25:22.705Z,987.17
2023-11-27T08:26:22.625Z,987.18
2023-11-27T08:27:22.643Z,987.01
2023-11-27T08:28:22.636Z,987.06
2023-11-27T08:29:22.602Z,987.01
2023-11-27T08:30:22.586Z,986.95
2023-11-27T08:31:22.672Z,987.01
2023-11-27T08:32:22.591Z,987.03
2023-11-27T08:33:22.562Z,986.93
2023-11-27T08:34:22.582Z,986.94
2023-11-27T08:35:22.537Z,986.89
2023-11-27T08:36:22.527Z,986.97
2023-11-27T08:37:22.540Z,986.91
2023-11-27T08:38:22.602Z,986.91
2023-11-27T08:39:22.501Z,986.96
2023-11-27T08:40:22.582Z,986.91
2023-11-27T08:41:22.491Z,986.94
2023-11-27T08:42:22.469Z,986.91
2023-11-27T08:43:22.471Z,986.91
2023-11-27T08:44:22.474Z,986.96
2023-11-27T08:45:22.426Z,986.95
2023-11-27T08:46:22.519Z,986.95
2023-11-27T08:47:22.452Z,986.95
2023-11-27T08:48:22.435Z,986.89
2023-11-27T08:49:22.507Z,986.79
2023-11-27T08:50:22.394Z,986.71
2023-11-27T08:51:22.365Z,986.67
2023-11-27T08:52:22.441Z,986.73
2023-11-27T08:53:22.336Z,986.57
2023-11-27T08:54:22.368Z,986.60
2023-11-27T08:55:22.384Z,986.53
2023-11-27T08:56:22.311Z,986.53
2023-11-27T08:57:22.342Z,986.53
2023-11-27T08:58:22.318Z,986.60
2023-11-27T08:59:22.282Z,986.67
2023-11-27T09:00:22.293Z,986.61
2023-11-27T09:01:22.312Z,986.64
2023-11-27T09:02:22.323Z,986.64
2023-11-27T09:03:22.274Z,986.62
2023-11-27T09:04:22.286Z,986.62
2023-11-27T09:05:22.216Z,986.61
2023-11-27T09:06:22.211Z,986.70
2023-11-27T09:07:22.237Z,986.66
2023-11-27T09:08:22.208Z,986.70
2023-11-27T09:09:22.222Z,986.64
2023-11-27T09:10:22.229Z,986.60
2023-11-27T09:11:23.630Z,986.56
2023-11-27T09:12:22.143Z,986.51
2023-11-27T09:13:22.190Z,986.47
2023-11-27T09:14:22.145Z,986.43
2023-11-27T09:15:22.131Z,986.44
2023-11-27T09:16:22.216Z,986.43
2023-11-27T09:17:22.347Z,986.49
2023-11-27T09:18:22.095Z,986.43
2023-11-27T09:19:22.086Z,986.36
2023-11-27T09:20:22.092Z,986.43
2023-11-27T09:21:22.052Z,986.45
2023-11-27T09:22:23.367Z,986.39
2023-11-27T09:23:22.019Z,986.36
2023-11-27T09:24:22.014Z,986.35
2023-11-27T09:25:22.057Z,986.40
2023-11-27T09:26:22.017Z,986.46
2023-11-27T09:27:21.977Z,986.36
2023-11-27T09:28:22.058Z,986.27
2023-11-27T09:29:21.991Z,986.33
2023-11-27T09:30:22.192Z,986.28
2023-11-27T09:31:22.040Z,986.27
2023-11-27T09:32:21.983Z,986.27
2023-11-27T09:33:21.944Z,986.22
2023-11-27T09:34:21.936Z,986.23
2023-11-27T09:35:21.896Z,986.14
2023-11-27T09:36:21.937Z,986.09
2023-11-27T09:37:21.887Z,986.10
2023-11-27T09:38:21.864Z,986.09
2023-11-27T09:39:21.886Z,986.06
2023-11-27T09:40:21.915Z,985.99
2023-11-27T09:41:21.858Z,986.02
2023-11-27T09:42:23.715Z,985.99
2023-11-27T09:43:21.878Z,985.90
2023-11-27T09:44:21.826Z,985.95
2023-11-27T09:45:22.154Z,985.94
2023-11-27T09:46:21.804Z,985.91
2023-11-27T09:47:21.835Z,985.92
2023-11-27T09:48:21.820Z,985.93
2023-11-27T09:49:21.813Z,985.92
2023-11-27T09:50:22.493Z,985.89
2023-11-27T09:51:21.725Z,985.95
2023-11-27T09:52:21.771Z,985.97
2023-11-27T09:53:21.705Z,985.94
2023-11-27T09:54:21.689Z,985.87
2023-11-27T09:55:21.721Z,985.90
2023-11-27T09:56:21.721Z,985.92
2023-11-27T09:57:21.666Z,985.84
2023-11-27T09:58:21.676Z,985.91
2023-11-27T09:59:21.641Z,985.86
2023-11-27T10:00:21.751Z,985.80
2023-11-27T10:01:21.826Z,985.77
2023-11-27T10:02:21.745Z,985.76
2023-11-27T10:03:21.766Z,985.76
2023-11-27T10:04:21.688Z,985.73
2023-11-27T10:05:21.583Z,985.69
2023-11-27T10:06:21.579Z,985.68
2023-11-27T10:07:21.628Z,985.68
2023-11-27T10:08:21.554Z,985.63
2023-11-27T10:09:21.558Z,985.57
2023-11-27T10:10:21.576Z,985.52
2023-11-27T10:11:21.559Z,985.47
2023-11-27T10:12:21.493Z,985.52
2023-11-27T10:13:31.354Z,985.47
2023-11-27T10:14:36.506Z,985.49
2023-11-27T10:15:22.564Z,985.56
2023-11-27T10:16:21.469Z,985.56
2023-11-27T10:17:21.520Z,985.52
2023-11-27T10:18:21.939Z,985.51
2023-11-27T10:19:21.468Z,985.41
2023-11-27T10:20:21.436Z,985.46
2023-11-27T10:21:21.405Z,985.48
2023-11-27T10:22:21.404Z,985.42
2023-11-27T10:23:21.407Z,985.46
2023-11-27T10:24:21.379Z,985.41
2023-11-27T10:25:21.403Z,985.39
2023-11-27T10:26:21.358Z,985.26
2023-11-27T10:27:21.345Z,985.25
2023-11-27T10:28:21.373Z,985.21
2023-11-27T10:29:22.351Z,985.19
2023-11-27T10:30:21.313Z,985.13
2023-11-27T10:31:21.377Z,985.11
2023-11-27T10:32:21.308Z,984.97
2023-11-27T10:33:21.371Z,984.95
2023-11-27T10:34:21.301Z,984.99
2023-11-27T10:35:21.281Z,985.01
2023-11-27T10:36:21.249Z,984.96
2023-11-27T10:37:21.291Z,984.97
2023-11-27T10:38:21.227Z,984.91
2023-11-27T10:39:21.217Z,984.88
2023-11-27T10:40:21.252Z,984.92
2023-11-27T10:41:21.213Z,984.86
2023-11-27T10:42:21.176Z,984.84
2023-11-27T10:43:21.219Z,984.76
2023-11-27T10:44:21.258Z,984.64
2023-11-27T10:45:21.159Z,984.69
2023-11-27T10:46:21.230Z,984.66
2023-11-27T10:47:21.201Z,984.63
2023-11-27T10:48:26.856Z,984.56
2023-11-27T10:49:22.133Z,984.52
2023-11-27T10:50:21.127Z,984.49
2023-11-27T10:51:21.086Z,984.48
2023-11-27T10:52:21.108Z,984.41
2023-11-27T10:53:21.090Z,984.38
2023-11-27T10:54:21.062Z,984.37
2023-11-27T10:55:21.250Z,984.33
2023-11-27T10:56:21.073Z,984.35
2023-11-27T10:57:21.025Z,984.26
2023-11-27T10:58:21.078Z,984.27
2023-11-27T10:59:21.000Z,984.28
2023-11-27T11:00:21.004Z,984.22
2023-11-27T11:01:21.080Z,984.17
2023-11-27T11:02:21.096Z,984.18
2023-11-27T11:03:20.962Z,984.14
2023-11-27T11:04:21.025Z,984.13
2023-11-27T11:05:21.040Z,984.05
2023-11-27T11:06:20.929Z,984.00
2023-11-27T11:07:21.194Z,983.99
2023-11-27T11:08:20.928Z,983.98
2023-11-27T11:09:20.897Z,983.98
2023-11-27T11:10:20.930Z,983.94
2023-11-27T11:11:20.867Z,983.91
2023-11-27T11:12:20.867Z,983.93
2023-11-27T11:13:20.892Z,983.90
2023-11-27T11:14:20.853Z,983.92
2023-11-27T11:15:23.645Z,983.88
2023-11-27T11:16:20.833Z,983.87
2023-11-27T11:17:20.856Z,983.91
2023-11-27T11:18:20.869Z,983.82
2023-11-27T11:19:20.799Z,983.86
2023-11-27T11:20:20.800Z,983.91
2023-11-27T11:21:24.478Z,983.86
2023-11-27T11:22:21.815Z,983.89
2023-11-27T11:23:20.761Z,983.87
2023-11-27T11:24:20.736Z,983.73
2023-11-27T11:25:20.774Z,983.75
2023-11-27T11:26:23.858Z,983.67
2023-11-27T11:27:23.366Z,983.63
2023-11-27T11:28:20.691Z,983.74
2023-11-27T11:29:20.669Z,983.66
2023-11-27T11:30:20.677Z,983.65
2023-11-27T11:31:20.811Z,983.68
2023-11-27T11:32:20.654Z,983.63
2023-11-27T11:33:20.663Z,983.58
2023-11-27T11:34:20.677Z,983.63
2023-11-27T11:35:20.613Z,983.61
2023-11-27T11:36:20.642Z,983.61
2023-11-27T11:37:20.673Z,983.62
2023-11-27T11:38:20.582Z,983.61
2023-11-27T11:39:23.680Z,983.57
2023-11-27T11:40:21.454Z,983.50
2023-11-27T11:41:20.542Z,983.52
2023-11-27T11:42:20.537Z,983.54
2023-11-27T11:43:20.594Z,983.54
2023-11-27T11:44:20.555Z,983.54
2023-11-27T11:45:20.682Z,983.47
2023-11-27T11:46:20.591Z,983.50
2023-11-27T11:47:20.560Z,983.46
2023-11-27T11:48:20.570Z,983.47
2023-11-27T11:49:20.473Z,983.45
2023-11-27T11:50:20.476Z,983.44
2023-11-27T11:51:20.474Z,983.43
2023-11-27T11:52:20.463Z,983.43
2023-11-27T11:53:20.548Z,983.42
2023-11-27T11:54:20.398Z,983.46
2023-11-27T11:55:21.347Z,983.46
2023-11-27T11:56:20.432Z,983.44
2023-11-27T11:57:20.371Z,983.43
2023-11-27T11:58:20.440Z,983.48
2023-11-27T11:59:20.349Z,983.50
2023-11-27T12:00:20.337Z,983.44
2023-11-27T12:01:20.350Z,983.42
2023-11-27T12:02:20.389Z,983.40
2023-11-27T12:03:22.717Z,983.37
2023-11-27T12:04:20.511Z,983.36
2023-11-27T12:05:20.290Z,983.30
2023-11-27T12:06:20.272Z,983.34
2023-11-27T12:07:20.316Z,983.29
2023-11-27T12:08:20.304Z,983.26
2023-11-27T12:09:20.302Z,983.29
2023-11-27T12:10:20.274Z,983.31
2023-11-27T12:11:20.220Z,983.31
2023-11-27T12:12:20.205Z,983.24
2023-11-27T12:13:20.228Z,983.26
2023-11-27T12:14:20.184Z,983.21
2023-11-27T12:15:20.202Z,983.13
2023-11-27T12:16:20.230Z,983.10
2023-11-27T12:17:22.400Z,983.11
2023-11-27T12:18:20.223Z,983.09
2023-11-27T12:19:20.178Z,983.07
2023-11-27T12:20:20.174Z,983.02
2023-11-27T12:21:20.782Z,982.93
2023-11-27T12:22:20.134Z,982.90
2023-11-27T12:23:20.108Z,982.91
2023-11-27T12:24:20.073Z,982.82
2023-11-27T12:25:20.177Z,982.89
2023-11-27T12:26:20.080Z,982.85
2023-11-27T12:27:20.059Z,982.85
2023-11-27T12:28:20.050Z,982.81